Terminal Aerodrome Forecast
Issued by NWS

Home | Current Version | Previous Version | Text Only | Print | Product List | Glossary On
Versions: 1 2 3 4 5 6 7 8 9 10 11 12 13 14 15 16 17 18 19 20 21 22 23 24 25 26 27
834
FTUS46 KPDT 141454 AAB
TAFDLS
TAF AMD
KDLS 141454Z 1415/1512 30004KT P6SM -RA SCT020 OVC040
      TEMPO 1415/1417 3SM BR OVC030
     FM141800 30011KT P6SM -SHRA BKN040 BKN100
     FM150000 30012G20KT P6SM VCSH BKN025 OVC040
     FM150800 30010KT P6SM OVC040=

USA.gov is the U.S. government's official web portal to all federal, state and local government web resources and services.